ěÝzenÝ letovÚho provozu ╚eskÚ republiky
Letiste: LKPR Aktualizace: 19.01.2021 15:40:28  UTC
 SPECI LKPR 19.01. 15:39 ...
SPECI LKPR 191539Z 22017KT 6000 -SN FEW010 SCT015 OVC040 00/M01 Q1009 R24/650395 R30/550394 RMK REG QNH 1005=
 TAF LKPR 19.01. 11:00 AAA
TAF AMD LKPR 191530Z 1915/2018 21016KT 9999 BKN022      TEMPO 1915/2005 24018G28KT -SNRA BKN012      PROB30 TEMPO 1915/1919 1200 SN OVC005      PROB30 TEMPO 1916/2003 24024G40KT      BECMG 2006/2008 CAVOK=
 WARNING LKPR 19.01. 13:58 ...
LKPR AD WRNG 3 VALID 191400/191635 SN 3CM FCST NC=